createdAt,value
2022-09-19T00:00:14.702Z,20.16
2022-09-19T00:02:16.490Z,20.18
2022-09-19T00:04:26.263Z,20.21
2022-09-19T00:06:28.367Z,20.20
2022-09-19T00:08:30.089Z,20.18
2022-09-19T00:10:31.839Z,20.21
2022-09-19T00:12:33.489Z,20.18
2022-09-19T00:14:35.430Z,20.20
2022-09-19T00:16:38.994Z,20.19
2022-09-19T00:18:40.727Z,20.20
2022-09-19T00:20:43.412Z,20.22
2022-09-19T00:22:45.106Z,20.22
2022-09-19T00:24:46.826Z,20.23
2022-09-19T00:26:48.732Z,20.24
2022-09-19T00:28:50.521Z,20.23
2022-09-19T00:30:52.224Z,20.24
2022-09-19T00:32:54.008Z,20.23
2022-09-19T00:34:55.679Z,20.21
2022-09-19T00:36:57.444Z,20.22
2022-09-19T00:38:59.107Z,20.21
2022-09-19T00:41:00.887Z,20.22
2022-09-19T00:43:02.562Z,20.22
2022-09-19T00:45:07.889Z,20.23
2022-09-19T00:47:17.833Z,20.22
2022-09-19T00:49:19.573Z,20.21
2022-09-19T00:51:29.534Z,20.20
2022-09-19T00:53:31.272Z,20.19
2022-09-19T00:55:33.020Z,20.21
2022-09-19T00:57:54.201Z,20.19
2022-09-19T00:59:55.873Z,20.19
2022-09-19T01:01:57.686Z,20.18
2022-09-19T01:03:59.387Z,20.18
2022-09-19T01:06:07.486Z,20.17
2022-09-19T01:08:59.914Z,20.17
2022-09-19T01:11:09.070Z,20.18
2022-09-19T01:13:10.741Z,20.20
2022-09-19T01:15:37.116Z,20.22
2022-09-19T01:17:46.175Z,20.23
2022-09-19T01:19:59.626Z,20.23
2022-09-19T01:22:18.061Z,20.24
2022-09-19T01:24:32.877Z,20.25
2022-09-19T01:26:34.363Z,20.25
2022-09-19T01:28:37.845Z,20.26
2022-09-19T01:30:48.492Z,20.26
2022-09-19T01:33:04.811Z,20.26
2022-09-19T01:35:08.745Z,20.27
2022-09-19T01:37:27.026Z,20.27
2022-09-19T01:39:28.840Z,20.26
2022-09-19T01:41:30.827Z,20.27
2022-09-19T01:43:32.529Z,20.26
2022-09-19T01:45:35.947Z,20.27
2022-09-19T01:47:43.653Z,20.26
2022-09-19T01:50:06.010Z,20.26
2022-09-19T01:52:29.281Z,20.26
2022-09-19T01:54:34.245Z,20.26
2022-09-19T01:56:50.765Z,20.26
2022-09-19T01:59:21.724Z,20.26
2022-09-19T02:01:42.368Z,20.28
2022-09-19T02:04:26.096Z,20.26
2022-09-19T02:06:27.611Z,20.27
2022-09-19T02:08:34.100Z,20.26
2022-09-19T02:10:49.235Z,20.24
2022-09-19T02:12:52.226Z,20.23
2022-09-19T02:14:54.300Z,20.23
2022-09-19T02:17:05.693Z,20.24
2022-09-19T02:19:14.421Z,20.24
2022-09-19T02:21:20.073Z,20.24
2022-09-19T02:23:24.821Z,20.21
2022-09-19T02:25:28.827Z,20.21
2022-09-19T02:27:36.017Z,20.22
2022-09-19T02:29:41.774Z,20.22
2022-09-19T02:31:43.558Z,20.21
2022-09-19T02:33:45.276Z,20.22
2022-09-19T02:35:56.174Z,20.20
2022-09-19T02:38:00.292Z,20.20
2022-09-19T02:40:19.156Z,20.20
2022-09-19T02:42:41.878Z,20.19
2022-09-19T02:45:04.958Z,20.19
2022-09-19T02:47:15.384Z,20.20
2022-09-19T02:49:27.038Z,20.20
2022-09-19T02:51:36.170Z,20.20
2022-09-19T02:53:45.581Z,20.21
2022-09-19T02:55:49.762Z,20.20
2022-09-19T02:57:52.258Z,20.22
2022-09-19T02:59:54.522Z,20.21
2022-09-19T03:01:58.657Z,20.24
2022-09-19T03:04:06.574Z,20.24
2022-09-19T03:06:08.326Z,20.25
2022-09-19T03:08:10.003Z,20.25
2022-09-19T03:10:13.521Z,20.23
2022-09-19T03:12:36.501Z,20.22
2022-09-19T03:14:38.263Z,20.23
2022-09-19T03:16:41.836Z,20.21
2022-09-19T03:18:44.587Z,20.19
2022-09-19T03:20:54.400Z,20.18
2022-09-19T03:22:56.044Z,20.17
2022-09-19T03:24:57.789Z,20.17
2022-09-19T03:26:59.496Z,20.19
2022-09-19T03:29:02.223Z,20.20
2022-09-19T03:31:03.935Z,20.21
2022-09-19T03:33:05.645Z,20.22
2022-09-19T03:35:08.443Z,20.23
2022-09-19T03:37:10.176Z,20.22
2022-09-19T03:39:11.873Z,20.20
2022-09-19T03:41:17.422Z,20.20
2022-09-19T03:43:19.058Z,20.18
2022-09-19T03:45:20.780Z,20.20
2022-09-19T03:47:22.559Z,20.17
2022-09-19T03:49:24.217Z,20.16
2022-09-19T03:51:25.931Z,20.19
2022-09-19T03:53:27.942Z,20.18
2022-09-19T03:55:29.644Z,20.31
2022-09-19T03:57:31.343Z,20.38
2022-09-19T03:59:33.030Z,20.37
2022-09-19T04:01:34.739Z,20.24
2022-09-19T04:03:37.272Z,20.17
2022-09-19T04:05:39.132Z,20.10
2022-09-19T04:07:40.795Z,20.07
2022-09-19T04:09:42.440Z,20.09
2022-09-19T04:11:44.120Z,20.04
2022-09-19T04:13:45.810Z,20.02
2022-09-19T04:15:47.701Z,19.94
2022-09-19T04:17:49.375Z,19.97
2022-09-19T04:19:51.110Z,20.04
2022-09-19T04:21:54.161Z,20.13
2022-09-19T04:23:55.883Z,20.23
2022-09-19T04:25:57.628Z,20.20
2022-09-19T04:27:59.390Z,20.17
2022-09-19T04:30:01.148Z,20.23
2022-09-19T04:32:03.167Z,20.34
2022-09-19T04:34:07.908Z,20.40
2022-09-19T04:36:09.609Z,20.25
2022-09-19T04:38:18.048Z,20.14
2022-09-19T04:40:19.810Z,20.12
2022-09-19T04:42:21.509Z,20.10
2022-09-19T04:44:23.134Z,20.07
2022-09-19T04:46:24.918Z,20.03
2022-09-19T04:48:26.566Z,20.00
2022-09-19T04:50:28.224Z,20.01
2022-09-19T04:52:29.886Z,19.98
2022-09-19T04:54:31.538Z,19.94
2022-09-19T04:56:33.500Z,19.93
2022-09-19T04:58:35.172Z,19.92
2022-09-19T05:00:37.017Z,19.91
2022-09-19T05:02:38.826Z,19.88
2022-09-19T05:04:42.777Z,19.89
2022-09-19T05:06:47.348Z,19.90
2022-09-19T05:08:49.155Z,19.88
2022-09-19T05:10:50.907Z,19.90
2022-09-19T05:12:52.952Z,19.91
2022-09-19T05:14:54.761Z,19.91
2022-09-19T05:16:56.413Z,19.90
2022-09-19T05:18:58.056Z,19.90
2022-09-19T05:21:06.554Z,19.86
2022-09-19T05:23:08.199Z,19.84
2022-09-19T05:25:09.929Z,19.85
2022-09-19T05:27:11.566Z,19.85
2022-09-19T05:29:13.459Z,19.83
2022-09-19T05:31:15.177Z,19.83
2022-09-19T05:33:16.887Z,19.83
2022-09-19T05:35:18.948Z,19.84
2022-09-19T05:37:20.615Z,19.81
2022-09-19T05:39:22.362Z,19.82
2022-09-19T05:41:24.060Z,19.82
2022-09-19T05:43:25.916Z,19.81
2022-09-19T05:45:27.782Z,19.83
2022-09-19T05:47:29.537Z,19.88
2022-09-19T05:49:31.287Z,19.89
2022-09-19T05:51:32.936Z,19.87
2022-09-19T05:53:34.594Z,19.88
2022-09-19T05:55:36.338Z,19.92
2022-09-19T05:57:38.023Z,19.91
2022-09-19T05:59:39.684Z,19.88
2022-09-19T06:01:41.467Z,19.87
2022-09-19T06:03:43.243Z,19.85
2022-09-19T06:05:45.825Z,19.84
2022-09-19T06:07:47.472Z,19.87
2022-09-19T06:09:49.089Z,19.86
2022-09-19T06:11:50.735Z,19.85
2022-09-19T06:13:52.401Z,19.87
2022-09-19T06:15:54.110Z,19.86
2022-09-19T06:17:56.558Z,19.89
2022-09-19T06:19:58.318Z,19.91
2022-09-19T06:21:59.990Z,19.89
2022-09-19T06:24:01.900Z,19.87
2022-09-19T06:26:03.623Z,19.87
2022-09-19T06:28:07.029Z,19.89
2022-09-19T06:30:09.217Z,19.90
2022-09-19T06:32:10.965Z,19.89
2022-09-19T06:34:12.583Z,19.90
2022-09-19T06:36:14.227Z,19.90
2022-09-19T06:38:15.867Z,19.90
2022-09-19T06:40:17.993Z,19.90
2022-09-19T06:42:19.738Z,19.86
2022-09-19T06:44:21.409Z,19.86
2022-09-19T06:46:23.054Z,19.86
2022-09-19T06:48:24.771Z,19.89
2022-09-19T06:50:26.967Z,19.88
2022-09-19T06:52:28.882Z,19.82
2022-09-19T06:54:30.604Z,19.79
2022-09-19T06:56:32.288Z,19.80
2022-09-19T06:58:33.920Z,19.81
2022-09-19T07:00:35.958Z,19.81
2022-09-19T07:02:37.666Z,19.80
2022-09-19T07:04:39.317Z,19.77
2022-09-19T07:06:44.781Z,19.79
2022-09-19T07:08:47.083Z,19.80
2022-09-19T07:10:48.779Z,19.79
2022-09-19T07:12:57.079Z,19.79
2022-09-19T07:15:00.283Z,19.81
2022-09-19T07:17:02.109Z,19.80
2022-09-19T07:19:03.861Z,19.79
2022-09-19T07:21:05.931Z,19.82
2022-09-19T07:23:12.959Z,19.88
2022-09-19T07:25:18.406Z,19.91
2022-09-19T07:27:20.664Z,19.93
2022-09-19T07:29:22.328Z,19.94
2022-09-19T07:31:24.559Z,19.93
2022-09-19T07:33:26.746Z,19.91
2022-09-19T07:35:34.204Z,19.95
2022-09-19T07:37:36.952Z,19.98
2022-09-19T07:40:01.252Z,20.03
2022-09-19T07:42:01.599Z,20.00
2022-09-19T07:44:03.573Z,20.01
2022-09-19T07:46:05.386Z,20.02
2022-09-19T07:48:07.237Z,19.99
2022-09-19T07:50:09.219Z,20.01
2022-09-19T07:52:10.882Z,20.02
2022-09-19T07:54:12.636Z,19.99
2022-09-19T07:56:14.462Z,19.98
2022-09-19T07:58:16.091Z,19.97
2022-09-19T08:00:18.027Z,19.98
2022-09-19T08:02:19.766Z,19.99
2022-09-19T08:04:21.455Z,19.95
2022-09-19T08:06:23.139Z,19.94
2022-09-19T08:08:24.820Z,19.94
2022-09-19T08:10:26.450Z,19.92
2022-09-19T08:12:28.197Z,19.92
2022-09-19T08:14:29.965Z,19.88
2022-09-19T08:16:31.798Z,19.91
2022-09-19T08:18:33.506Z,19.90
2022-09-19T08:20:36.344Z,19.93
2022-09-19T08:22:38.017Z,19.96
2022-09-19T08:24:39.677Z,19.98
2022-09-19T08:26:41.408Z,19.97
2022-09-19T08:28:43.086Z,19.96
2022-09-19T08:30:44.827Z,19.94
2022-09-19T08:32:49.903Z,19.90
2022-09-19T08:34:51.582Z,19.94
2022-09-19T08:36:53.250Z,19.95
2022-09-19T08:38:54.934Z,19.94
2022-09-19T08:41:08.592Z,19.94
2022-09-19T08:43:32.770Z,19.94
2022-09-19T08:45:37.343Z,19.96
2022-09-19T08:47:39.079Z,20.00
2022-09-19T08:49:44.982Z,19.99
2022-09-19T08:52:07.534Z,19.98
2022-09-19T08:54:17.275Z,19.98
2022-09-19T08:56:18.946Z,20.00
2022-09-19T08:58:21.396Z,20.01
2022-09-19T09:00:24.252Z,20.01
2022-09-19T09:03:04.190Z,20.01
2022-09-19T09:05:08.656Z,20.02
2022-09-19T09:07:19.150Z,20.04
2022-09-19T09:09:48.530Z,20.03
2022-09-19T09:11:59.190Z,20.03
2022-09-19T09:14:24.070Z,20.05
2022-09-19T09:16:43.805Z,20.08
2022-09-19T09:18:54.805Z,20.09
2022-09-19T09:21:20.849Z,20.08
2022-09-19T09:23:38.055Z,20.08
2022-09-19T09:25:41.360Z,20.08
2022-09-19T09:27:54.265Z,20.05
2022-09-19T09:29:57.119Z,20.08
2022-09-19T09:32:20.454Z,20.09
2022-09-19T09:34:32.070Z,20.08
2022-09-19T09:36:39.061Z,20.08
2022-09-19T09:38:42.372Z,20.10
2022-09-19T09:40:50.572Z,20.10
2022-09-19T09:42:57.829Z,20.13
2022-09-19T09:45:03.994Z,20.12
2022-09-19T09:47:08.819Z,20.13
2022-09-19T09:49:11.168Z,20.13
2022-09-19T09:51:41.037Z,20.16
2022-09-19T09:53:48.729Z,20.14
2022-09-19T09:55:54.330Z,20.14
2022-09-19T09:58:18.052Z,20.13
2022-09-19T10:00:19.900Z,20.15
2022-09-19T10:02:56.897Z,20.13
2022-09-19T10:05:01.719Z,20.14
2022-09-19T10:07:12.423Z,20.18
2022-09-19T10:09:21.221Z,20.16
2022-09-19T10:14:03.874Z,20.15
2022-09-19T10:16:05.780Z,20.12
2022-09-19T10:18:09.750Z,20.13
2022-09-19T10:20:17.769Z,20.14
2022-09-19T10:22:19.481Z,20.16
2022-09-19T10:24:52.030Z,20.16
2022-09-19T10:26:57.022Z,20.16
2022-09-19T10:28:58.642Z,20.15
2022-09-19T10:31:02.370Z,20.16
2022-09-19T10:33:24.311Z,20.14
2022-09-19T10:35:35.872Z,20.14
2022-09-19T10:37:37.553Z,20.15
2022-09-19T10:39:43.122Z,20.16
2022-09-19T10:41:44.833Z,20.17
2022-09-19T10:43:48.252Z,20.19
2022-09-19T10:45:50.013Z,20.19
2022-09-19T10:47:52.488Z,20.17
2022-09-19T10:49:54.135Z,20.15
2022-09-19T10:51:55.913Z,20.15
2022-09-19T10:53:57.547Z,20.16
2022-09-19T10:56:02.385Z,20.16
2022-09-19T10:58:11.558Z,20.16
2022-09-19T11:00:26.399Z,20.16
2022-09-19T11:02:28.105Z,20.18
2022-09-19T11:04:29.793Z,20.18
2022-09-19T11:06:32.355Z,20.18
2022-09-19T11:08:39.577Z,20.19
2022-09-19T11:10:42.238Z,20.20
2022-09-19T11:12:43.899Z,20.19
2022-09-19T11:14:46.899Z,20.19
2022-09-19T11:17:01.940Z,20.21
2022-09-19T11:19:38.100Z,20.20
2022-09-19T11:21:47.234Z,20.20
2022-09-19T11:24:07.187Z,20.18
2022-09-19T11:26:24.667Z,20.18
2022-09-19T11:28:48.530Z,20.16
2022-09-19T11:30:59.290Z,20.14
2022-09-19T11:36:11.590Z,20.05
2022-09-19T11:41:36.382Z,20.09
2022-09-19T11:43:46.936Z,20.12
2022-09-19T11:45:48.642Z,20.05
2022-09-19T11:48:34.336Z,20.06
2022-09-19T11:51:06.419Z,20.05
2022-09-19T11:53:40.732Z,20.02
2022-09-19T11:56:09.382Z,20.03
2022-09-19T11:58:24.452Z,20.03
2022-09-19T12:00:27.571Z,20.09
2022-09-19T12:02:55.641Z,20.09
2022-09-19T12:05:25.963Z,20.09
2022-09-19T12:08:02.739Z,20.11
2022-09-19T12:10:17.521Z,20.13
2022-09-19T12:12:22.870Z,20.12
2022-09-19T12:14:39.701Z,20.11
2022-09-19T12:17:02.115Z,20.13
2022-09-19T12:19:08.630Z,20.15
2022-09-19T12:21:10.709Z,20.17
2022-09-19T12:23:17.695Z,20.18
2022-09-19T12:25:26.228Z,20.16
2022-09-19T12:27:43.701Z,20.17
2022-09-19T12:30:17.323Z,20.16
2022-09-19T12:32:46.015Z,20.16
2022-09-19T12:35:01.032Z,20.15
2022-09-19T12:37:16.768Z,20.15
2022-09-19T12:39:27.973Z,20.12
2022-09-19T12:41:54.240Z,20.31
2022-09-19T12:44:17.047Z,20.46
2022-09-19T12:46:36.168Z,20.57
2022-09-19T12:49:00.742Z,20.69
2022-09-19T12:51:02.558Z,20.84
2022-09-19T12:53:36.461Z,21.02
2022-09-19T12:55:41.534Z,21.09
2022-09-19T12:57:46.055Z,21.18
2022-09-19T12:59:47.882Z,21.21
2022-09-19T13:02:00.743Z,21.21
2022-09-19T13:04:17.466Z,21.37
2022-09-19T13:06:24.636Z,21.40
2022-09-19T13:09:06.375Z,21.34
2022-09-19T13:11:16.992Z,21.56
2022-09-19T13:13:30.407Z,21.65
2022-09-19T13:15:48.470Z,21.57
2022-09-19T13:17:50.235Z,21.78
2022-09-19T13:19:52.988Z,22.26
2022-09-19T13:21:54.749Z,22.66
2022-09-19T13:23:59.826Z,22.87
2022-09-19T13:26:13.305Z,23.01
2022-09-19T13:28:21.236Z,23.16
2022-09-19T13:30:45.461Z,23.16
2022-09-19T13:32:56.666Z,22.92
2022-09-19T13:35:07.465Z,23.04
2022-09-19T13:37:27.642Z,23.04
2022-09-19T13:39:54.393Z,22.97
2022-09-19T13:41:56.273Z,22.90
2022-09-19T13:44:15.640Z,23.02
2022-09-19T13:46:22.304Z,23.11
2022-09-19T13:48:52.751Z,23.10
2022-09-19T13:51:06.201Z,23.08
2022-09-19T13:53:32.279Z,23.09
2022-09-19T13:55:36.842Z,22.99
2022-09-19T13:57:38.728Z,23.04
2022-09-19T14:00:10.841Z,22.98
2022-09-19T14:02:12.735Z,22.98
2022-09-19T14:04:16.606Z,23.23
2022-09-19T14:06:29.474Z,23.45
2022-09-19T14:10:53.668Z,23.30
2022-09-19T14:12:57.382Z,23.35
2022-09-19T14:14:59.365Z,22.96
2022-09-19T14:17:33.871Z,22.32
2022-09-19T14:19:50.867Z,22.34
2022-09-19T14:21:53.112Z,22.87
2022-09-19T14:24:00.139Z,22.70
2022-09-19T14:26:13.962Z,22.97
2022-09-19T14:28:21.528Z,22.40
2022-09-19T14:30:29.137Z,22.19
2022-09-19T14:32:32.921Z,22.81
2022-09-19T14:34:55.795Z,23.21
2022-09-19T14:37:18.520Z,23.43
2022-09-19T14:39:50.007Z,23.45
2022-09-19T14:42:07.762Z,23.47
2022-09-19T14:44:47.005Z,23.67
2022-09-19T14:46:55.313Z,23.77
2022-09-19T14:49:04.127Z,23.55
2022-09-19T14:51:44.657Z,23.45
2022-09-19T14:53:46.431Z,23.67
2022-09-19T14:55:50.525Z,23.62
2022-09-19T14:57:52.300Z,23.73
2022-09-19T14:59:54.264Z,23.40
2022-09-19T15:01:56.156Z,23.56
2022-09-19T15:04:02.418Z,23.49
2022-09-19T15:06:16.490Z,23.63
2022-09-19T15:08:21.110Z,22.96
2022-09-19T15:10:33.076Z,22.21
2022-09-19T15:12:35.648Z,22.13
2022-09-19T15:14:42.676Z,22.28
2022-09-19T15:16:44.383Z,22.53
2022-09-19T15:18:48.235Z,22.56
2022-09-19T15:20:55.926Z,22.12
2022-09-19T15:22:58.431Z,21.89
2022-09-19T15:25:05.907Z,21.69
2022-09-19T15:27:17.502Z,21.52
2022-09-19T15:29:29.508Z,21.59
2022-09-19T15:31:32.895Z,21.54
2022-09-19T15:33:34.592Z,21.50
2022-09-19T15:35:41.527Z,21.43
2022-09-19T15:37:45.261Z,21.35
2022-09-19T15:39:48.486Z,21.36
2022-09-19T15:41:50.284Z,21.33
2022-09-19T15:43:51.976Z,21.30
2022-09-19T15:45:58.463Z,21.25
2022-09-19T15:48:02.878Z,21.24
2022-09-19T15:50:04.835Z,21.18
2022-09-19T15:52:35.744Z,21.17
2022-09-19T15:54:46.856Z,21.17
2022-09-19T15:56:48.981Z,21.14
2022-09-19T15:58:58.829Z,21.22
2022-09-19T16:01:14.753Z,21.20
2022-09-19T16:03:18.978Z,21.06
2022-09-19T16:05:31.592Z,21.11
2022-09-19T16:07:38.062Z,21.07
2022-09-19T16:09:42.237Z,21.05
2022-09-19T16:11:44.966Z,21.08
2022-09-19T16:13:46.632Z,21.11
2022-09-19T16:15:48.455Z,20.96
2022-09-19T16:17:52.922Z,21.17
2022-09-19T16:19:54.957Z,21.40
2022-09-19T16:21:56.697Z,21.53
2022-09-19T16:23:58.467Z,21.64
2022-09-19T16:26:01.591Z,21.99
2022-09-19T16:28:17.024Z,22.67
2022-09-19T16:30:18.948Z,22.98
2022-09-19T16:32:20.981Z,23.21
2022-09-19T16:34:29.403Z,23.29
2022-09-19T16:36:31.295Z,23.42
2022-09-19T16:38:35.664Z,23.50
2022-09-19T16:40:37.571Z,23.67
2022-09-19T16:42:39.594Z,23.77
2022-09-19T16:44:48.521Z,23.80
2022-09-19T16:46:51.022Z,23.79
2022-09-19T16:48:52.928Z,23.73
2022-09-19T16:50:54.703Z,23.78
2022-09-19T16:52:56.740Z,23.69
2022-09-19T16:54:59.939Z,23.75
2022-09-19T16:57:01.792Z,23.86
2022-09-19T16:59:09.980Z,23.81
2022-09-19T17:01:12.131Z,23.78
2022-09-19T17:03:13.890Z,23.36
2022-09-19T17:05:18.249Z,22.93
2022-09-19T17:07:19.744Z,22.73
2022-09-19T17:09:21.586Z,22.63
2022-09-19T17:11:23.641Z,22.52
2022-09-19T17:13:25.822Z,23.15
2022-09-19T17:15:50.134Z,23.44
2022-09-19T17:17:52.166Z,23.11
2022-09-19T17:19:54.391Z,23.55
2022-09-19T17:21:56.339Z,23.54
2022-09-19T17:23:58.054Z,23.80
2022-09-19T17:25:59.748Z,23.85
2022-09-19T17:28:02.260Z,23.99
2022-09-19T17:30:04.954Z,23.95
2022-09-19T17:32:07.370Z,24.01
2022-09-19T17:34:10.039Z,24.08
2022-09-19T17:36:13.282Z,24.17
2022-09-19T17:38:18.075Z,24.08
2022-09-19T17:40:20.005Z,24.21
2022-09-19T17:42:25.298Z,24.08
2022-09-19T17:44:27.106Z,23.69
2022-09-19T17:46:28.907Z,22.62
2022-09-19T17:48:30.950Z,22.22
2022-09-19T17:50:32.765Z,22.07
2022-09-19T17:52:34.545Z,22.02
2022-09-19T17:54:38.907Z,21.93
2022-09-19T17:56:40.571Z,21.85
2022-09-19T17:58:42.602Z,22.11
2022-09-19T18:00:44.678Z,22.36
2022-09-19T18:02:46.806Z,22.48
2022-09-19T18:04:48.542Z,22.61
2022-09-19T18:06:50.765Z,22.23
2022-09-19T18:08:52.633Z,22.08
2022-09-19T18:11:01.715Z,22.13
2022-09-19T18:13:04.131Z,22.09
2022-09-19T18:15:06.521Z,22.13
2022-09-19T18:17:08.343Z,22.05
2022-09-19T18:19:10.324Z,22.02
2022-09-19T18:21:12.053Z,21.97
2022-09-19T18:23:14.296Z,21.90
2022-09-19T18:25:17.324Z,21.85
2022-09-19T18:27:19.487Z,21.77
2022-09-19T18:29:21.400Z,21.72
2022-09-19T18:31:23.629Z,21.76
2022-09-19T18:33:25.851Z,21.71
2022-09-19T18:35:27.790Z,21.66
2022-09-19T18:37:29.866Z,21.67
2022-09-19T18:39:31.678Z,21.65
2022-09-19T18:41:33.376Z,21.62
2022-09-19T18:43:35.664Z,21.62
2022-09-19T18:45:37.527Z,21.61
2022-09-19T18:47:39.736Z,21.60
2022-09-19T18:49:41.581Z,21.59
2022-09-19T18:51:43.435Z,21.57
2022-09-19T18:53:46.064Z,21.56
2022-09-19T18:55:54.236Z,21.56
2022-09-19T18:57:56.221Z,21.56
2022-09-19T18:59:58.173Z,21.56
2022-09-19T19:02:00.139Z,21.55
2022-09-19T19:04:02.162Z,21.56
2022-09-19T19:06:08.683Z,21.55
2022-09-19T19:08:16.144Z,21.53
2022-09-19T19:10:17.859Z,21.52
2022-09-19T19:12:35.908Z,21.53
2022-09-19T19:14:41.374Z,21.52
2022-09-19T19:16:43.404Z,21.52
2022-09-19T19:18:46.323Z,21.51
2022-09-19T19:20:48.258Z,21.51
2022-09-19T19:22:49.996Z,21.50
2022-09-19T19:24:51.884Z,21.50
2022-09-19T19:26:54.532Z,21.49
2022-09-19T19:28:56.519Z,21.48
2022-09-19T19:30:59.388Z,21.48
2022-09-19T19:33:01.219Z,21.46
2022-09-19T19:35:03.414Z,21.46
2022-09-19T19:37:05.360Z,21.45
2022-09-19T19:39:07.179Z,21.46
2022-09-19T19:41:11.972Z,21.46
2022-09-19T19:43:13.868Z,21.45
2022-09-19T19:45:15.617Z,21.45
2022-09-19T19:47:17.387Z,21.45
2022-09-19T19:49:19.175Z,21.45
2022-09-19T19:51:22.125Z,21.45
2022-09-19T19:53:23.964Z,21.46
2022-09-19T19:55:25.818Z,21.49
2022-09-19T19:57:27.644Z,21.49
2022-09-19T19:59:29.436Z,21.50
2022-09-19T20:01:32.314Z,21.48
2022-09-19T20:03:37.249Z,21.49
2022-09-19T20:05:46.769Z,21.47
2022-09-19T20:07:48.464Z,21.48
2022-09-19T20:09:50.120Z,21.49
2022-09-19T20:11:51.841Z,21.50
2022-09-19T20:13:54.594Z,21.49
2022-09-19T20:16:12.836Z,21.50
2022-09-19T20:18:14.582Z,21.51
2022-09-19T20:20:16.286Z,21.50
2022-09-19T20:22:18.052Z,21.50
2022-09-19T20:24:25.434Z,21.48
2022-09-19T20:26:28.817Z,21.48
2022-09-19T20:28:30.539Z,21.49
2022-09-19T20:30:37.144Z,21.50
2022-09-19T20:32:39.100Z,21.49
2022-09-19T20:34:40.842Z,21.48
2022-09-19T20:36:42.645Z,21.49
2022-09-19T20:38:44.443Z,21.50
2022-09-19T20:40:46.205Z,21.49
2022-09-19T20:42:48.317Z,21.47
2022-09-19T20:44:50.022Z,21.46
2022-09-19T20:46:51.766Z,21.45
2022-09-19T20:48:53.435Z,21.44
2022-09-19T20:50:55.959Z,21.43
2022-09-19T20:52:57.681Z,21.43
2022-09-19T20:54:59.371Z,21.42
2022-09-19T20:57:01.061Z,21.43
2022-09-19T20:59:02.849Z,21.43
2022-09-19T21:01:14.782Z,21.43
2022-09-19T21:03:16.634Z,21.43
2022-09-19T21:05:18.289Z,21.43
2022-09-19T21:07:20.081Z,21.44
2022-09-19T21:09:21.783Z,21.43
2022-09-19T21:11:23.971Z,21.43
2022-09-19T21:13:30.237Z,21.42
2022-09-19T21:15:31.869Z,21.42
2022-09-19T21:17:33.534Z,21.43
2022-09-19T21:19:35.205Z,21.42
2022-09-19T21:21:36.870Z,21.42
2022-09-19T21:23:42.248Z,21.43
2022-09-19T21:25:43.971Z,21.43
2022-09-19T21:27:45.751Z,21.42
2022-09-19T21:29:47.426Z,21.41
2022-09-19T21:31:49.211Z,21.40
2022-09-19T21:33:54.830Z,21.41
2022-09-19T21:35:57.555Z,21.41
2022-09-19T21:37:59.244Z,21.40
2022-09-19T21:40:01.096Z,21.41
2022-09-19T21:42:02.832Z,21.43
2022-09-19T21:44:05.874Z,21.43
2022-09-19T21:46:13.007Z,21.46
2022-09-19T21:48:14.747Z,21.47
2022-09-19T21:50:16.445Z,21.48
2022-09-19T21:52:18.132Z,21.51
2022-09-19T21:54:19.828Z,21.50
2022-09-19T21:56:21.661Z,21.49
2022-09-19T21:58:23.364Z,21.48
2022-09-19T22:00:25.084Z,21.49
2022-09-19T22:02:26.860Z,21.48
2022-09-19T22:04:28.549Z,21.49
2022-09-19T22:06:30.429Z,21.51
2022-09-19T22:08:32.146Z,21.52
2022-09-19T22:10:35.086Z,21.51
2022-09-19T22:12:36.718Z,21.50
2022-09-19T22:14:38.401Z,21.50
2022-09-19T22:16:40.269Z,21.51
2022-09-19T22:18:42.198Z,21.51
2022-09-19T22:20:43.936Z,21.51
2022-09-19T22:22:45.648Z,21.51
2022-09-19T22:24:47.274Z,21.51
2022-09-19T22:26:49.006Z,21.51
2022-09-19T22:28:51.928Z,21.48
2022-09-19T22:30:58.093Z,21.48
2022-09-19T22:32:59.766Z,21.49
2022-09-19T22:35:01.515Z,21.48
2022-09-19T22:37:03.283Z,21.49
2022-09-19T22:39:04.940Z,21.49
2022-09-19T22:41:08.228Z,21.48
2022-09-19T22:43:09.907Z,21.50
2022-09-19T22:45:11.616Z,21.50
2022-09-19T22:47:13.235Z,21.50
2022-09-19T22:49:14.901Z,21.52
2022-09-19T22:51:18.492Z,21.53
2022-09-19T22:53:20.158Z,21.53
2022-09-19T22:55:21.927Z,21.53
2022-09-19T22:57:23.705Z,21.52
2022-09-19T22:59:25.402Z,21.51
2022-09-19T23:01:29.419Z,21.52
2022-09-19T23:03:31.197Z,21.56
2022-09-19T23:05:32.922Z,21.56
2022-09-19T23:07:34.631Z,21.55
2022-09-19T23:09:36.483Z,21.53
2022-09-19T23:11:38.292Z,21.53
2022-09-19T23:13:39.956Z,21.53
2022-09-19T23:15:41.633Z,21.52
2022-09-19T23:17:43.428Z,21.54
2022-09-19T23:19:45.091Z,21.53
2022-09-19T23:21:49.237Z,21.56
2022-09-19T23:23:51.068Z,21.55
2022-09-19T23:25:52.718Z,21.54
2022-09-19T23:27:54.416Z,21.55
2022-09-19T23:29:56.108Z,21.53
2022-09-19T23:31:57.879Z,21.53
2022-09-19T23:33:59.685Z,21.53
2022-09-19T23:36:02.960Z,21.56
2022-09-19T23:38:04.682Z,21.52
2022-09-19T23:40:07.062Z,21.49
2022-09-19T23:42:08.843Z,21.46
2022-09-19T23:44:10.604Z,21.45
2022-09-19T23:46:12.404Z,21.44
2022-09-19T23:48:14.216Z,21.44
2022-09-19T23:50:15.917Z,21.44
2022-09-19T23:52:17.550Z,21.46
2022-09-19T23:54:19.226Z,21.46
2022-09-19T23:56:21.872Z,21.45
2022-09-19T23:58:23.530Z,21.46
